Shirahamamaru — JG4872 — position and weather

sailwx.info

Track history (hours):
 
Tides and Currents Weather Stations Pressure Air Temp Water Temp Dewpoint Dewpoint Depression Visibility Wind Speed Wind Dir Waves Ship Positions

Shirahamamaru

Last reported at 2016-Jul-27 11:11 UTC. Time now 2016-Jul-27 11:39 UTC.
Position N 35°13' E 139°43'.

Length 79 m; draft 3.2 m.

Type: Passenger vessel. MMSI: 431000239.

Date/timePositionNaut miles runAvg speedWind from/ knotsBaromVisibWave heightAir tempDewpointWater temp
2016-Jul-27 11:11N 35°13' E 139°43'6 9.2
2016-Jul-27 10:33N 35°10' E 139°49'3 3.5
2016-Jul-27 09:33N 35°12' E 139°46'1 1.5
2016-Jul-27 08:33N 35°11' E 139°47'2 2.4
2016-Jul-27 07:33N 35°13' E 139°45'2 2.4
2016-Jul-27 06:33N 35°12' E 139°47'2 2.0
2016-Jul-27 05:33N 35°10' E 139°49'6 5.9
2016-Jul-27 04:33N 35°13' E 139°43'0 0.2
2016-Jul-27 03:33N 35°13' E 139°43'6 5.8
2016-Jul-27 02:33N 35°10' E 139°49'4 4.3
2016-Jul-27 01:33N 35°13' E 139°45'2 2.3
2016-Jul-27 00:33N 35°11' E 139°47'2 2.4
2016-Jul-26 23:32N 35°13' E 139°44'2 1.6
2016-Jul-26 22:33N 35°12' E 139°46'1 1.3
2016-Jul-26 21:32N 35°13' E 139°45'2 0.2
2016-Jul-26 11:10N 35°13' E 139°43'6 9.4
2016-Jul-26 10:33N 35°10' E 139°49'3 3.1
2016-Jul-26 09:33N 35°12' E 139°46'1 1.2
2016-Jul-26 08:33N 35°11' E 139°47'2 2.3
2016-Jul-26 07:33N 35°13' E 139°45'2 2.2
2016-Jul-26 06:33N 35°12' E 139°47'2 2.1
2016-Jul-26 05:33N 35°10' E 139°49'6 5.9
2016-Jul-26 04:33N 35°13' E 139°43'0 0.2
2016-Jul-26 03:33N 35°13' E 139°43'6 5.9
2016-Jul-26 02:33N 35°10' E 139°49'5 4.4
2016-Jul-26 01:31N 35°13' E 139°44'2 2.5
2016-Jul-26 00:33N 35°12' E 139°47'2 2.1
2016-Jul-25 23:33N 35°13' E 139°45'1 1.0
2016-Jul-25 22:34N 35°12' E 139°46'1 1.1
2016-Jul-25 21:33N 35°13' E 139°45'2 0.1
2016-Jul-25 11:07N 35°13' E 139°43'610.1
2016-Jul-25 10:33N 35°10' E 139°49'3 3.0
2016-Jul-25 09:33N 35°12' E 139°46'1 1.1
2016-Jul-25 08:34N 35°12' E 139°47'3 2.5
2016-Jul-25 07:33N 35°13' E 139°44'2 2.5
2016-Jul-25 06:34N 35°12' E 139°47'2 2.1
2016-Jul-25 05:33N 35°10' E 139°49'6 5.9
2016-Jul-25 04:33N 35°13' E 139°43'0 0.3
2016-Jul-25 03:33N 35°13' E 139°43'6 5.7
2016-Jul-25 02:33N 35°10' E 139°49'5 4.5
2016-Jul-25 01:33N 35°13' E 139°44'2 2.5
2016-Jul-25 00:33N 35°12' E 139°47'3 2.5
2016-Jul-24 23:32N 35°13' E 139°44'2 1.7
2016-Jul-24 22:33N 35°12' E 139°46'2 1.5
2016-Jul-24 21:32N 35°13' E 139°44'1 0.1
2016-Jul-24 11:08N 35°13' E 139°43'6 9.8
2016-Jul-24 10:33N 35°10' E 139°49'3 3.1
2016-Jul-24 09:33N 35°12' E 139°46'1 1.4
2016-Jul-24 08:33N 35°11' E 139°47'3 2.6
2016-Jul-24 07:33N 35°13' E 139°45'3 2.7
2016-Jul-24 06:33N 35°11' E 139°47'3 2.7
2016-Jul-24 05:33N 35°13' E 139°45'2 1.7
2016-Jul-24 04:33N 35°12' E 139°46'1 0.7
2016-Jul-24 03:33N 35°12' E 139°45'2 1.7
2016-Jul-24 02:33N 35°11' E 139°47'3 2.8
2016-Jul-24 01:32N 35°13' E 139°44'3 2.8
2016-Jul-24 00:33N 35°12' E 139°47'2 2.4
2016-Jul-23 23:33N 35°13' E 139°45'1 1.4
2016-Jul-23 22:33N 35°12' E 139°46'1 1.1
2016-Jul-23 21:33N 35°13' E 139°45'2 0.2
2016-Jul-23 11:10N 35°13' E 139°43'6 9.4
2016-Jul-23 10:33N 35°10' E 139°49'3 3.4
2016-Jul-23 09:33N 35°12' E 139°45'2 1.6
2016-Jul-23 08:33N 35°11' E 139°47'2 2.2
2016-Jul-23 07:33N 35°13' E 139°45'1 0.4
2016-Jul-23 04:34N 35°12' E 139°46'1 0.6
2016-Jul-23 03:33N 35°12' E 139°46'2 1.8
2016-Jul-23 02:34N 35°10' E 139°46'3 2.6
2016-Jul-23 01:33N 35°13' E 139°45'2 2.5
2016-Jul-23 00:34N 35°11' E 139°47'3 2.6
2016-Jul-22 23:33N 35°13' E 139°45'1 1.4
2016-Jul-22 22:33N 35°12' E 139°46'1 1.0
2016-Jul-22 21:33N 35°13' E 139°45'2 0.2
2016-Jul-22 11:08N 35°13' E 139°43'6 9.6
2016-Jul-22 10:33N 35°10' E 139°49'3 3.3
2016-Jul-22 09:34N 35°13' E 139°46'2 1.5
2016-Jul-22 08:33N 35°11' E 139°47'2 2.0
2016-Jul-22 07:33N 35°13' E 139°45'4 2.1
2016-Jul-22 05:33N 35°10' E 139°49'6 5.9
2016-Jul-22 04:33N 35°13' E 139°43'0 0.4
2016-Jul-22 03:33N 35°13' E 139°43'6 5.6
2016-Jul-22 02:33N 35°10' E 139°49'4 4.2
2016-Jul-22 01:33N 35°13' E 139°45'2 2.2
2016-Jul-22 00:33N 35°11' E 139°47'2 2.0
2016-Jul-21 23:33N 35°13' E 139°45'1 1.0
2016-Jul-21 22:33N 35°12' E 139°46'1 1.2
2016-Jul-21 21:33N 35°13' E 139°45'2 0.2
2016-Jul-21 11:07N 35°13' E 139°43'610.0
2016-Jul-21 10:33N 35°10' E 139°49'3 3.1
2016-Jul-21 09:33N 35°12' E 139°46'1 1.1
2016-Jul-21 08:33N 35°12' E 139°47'3 2.5
2016-Jul-21 07:32N 35°13' E 139°44'3 2.7
2016-Jul-21 06:33N 35°12' E 139°47'2 2.1
2016-Jul-21 05:34N 35°10' E 139°49'6 5.9
2016-Jul-21 04:34N 35°13' E 139°43'0 0.3
2016-Jul-21 03:33N 35°13' E 139°43'6 5.8
2016-Jul-21 02:33N 35°10' E 139°49'5 4.5
2016-Jul-21 01:34N 35°13' E 139°45'2 2.5
2016-Jul-21 00:33N 35°11' E 139°47'3 2.5
2016-Jul-20 23:33N 35°13' E 139°44'2 1.5
2016-Jul-20 22:33N 35°12' E 139°46'1 1.5
2016-Jul-20 21:32N 35°13' E 139°44'1 0.1
2016-Jul-20 11:09N 35°13' E 139°43'6 9.7
2016-Jul-20 10:33N 35°10' E 139°49'3 3.3
2016-Jul-20 09:34N 35°12' E 139°46'1 1.3
2016-Jul-20 08:33N 35°12' E 139°47'2 2.4
2016-Jul-20 07:32N 35°13' E 139°44'3 2.6
2016-Jul-20 06:34N 35°12' E 139°47'2 2.0
2016-Jul-20 05:33N 35°10' E 139°49'6 5.6
2016-Jul-20 04:31N 35°13' E 139°43'0 0.3
2016-Jul-20 03:32N 35°13' E 139°43'6 5.8
2016-Jul-20 02:33N 35°10' E 139°49'5 4.6
2016-Jul-20 01:33N 35°13' E 139°44'3 2.6
2016-Jul-20 00:33N 35°12' E 139°47'2 2.4
2016-Jul-19 23:33N 35°13' E 139°45'2 1.6
2016-Jul-19 22:33N 35°12' E 139°46'1 1.4
2016-Jul-19 21:33N 35°13' E 139°45'2 0.2
2016-Jul-19 11:12N 35°13' E 139°43'6 9.0
2016-Jul-19 10:34N 35°10' E 139°49'3 3.2
2016-Jul-19 09:33N 35°12' E 139°46'1 1.3
2016-Jul-19 08:33N 35°11' E 139°47'2 2.2
2016-Jul-19 07:34N 35°13' E 139°45'2 0.5
2016-Jul-19 04:33N 35°13' E 139°43'0 0.3
2016-Jul-19 03:33N 35°13' E 139°43'6 5.6
2016-Jul-19 02:33N 35°10' E 139°49'4 4.4
2016-Jul-19 01:33N 35°13' E 139°45'2 2.2
2016-Jul-19 00:34N 35°12' E 139°47'2 2.2
2016-Jul-18 23:33N 35°13' E 139°45'1 1.5
2016-Jul-18 22:34N 35°12' E 139°46'1 1.4
2016-Jul-18 21:34N 35°13' E 139°45'2 0.2
2016-Jul-18 11:08N 35°13' E 139°43'6 9.9
2016-Jul-18 10:33N 35°10' E 139°49'3 3.0
2016-Jul-18 09:33N 35°12' E 139°46'1 1.2
2016-Jul-18 08:33N 35°11' E 139°47'3 2.5
2016-Jul-18 07:33N 35°13' E 139°45'3 2.8
2016-Jul-18 06:33N 35°11' E 139°47'3 2.8
2016-Jul-18 05:32N 35°13' E 139°45'2 1.6
2016-Jul-18 04:33N 35°12' E 139°46'0 0.4
2016-Jul-18 03:34N 35°12' E 139°46'1 1.4
2016-Jul-18 02:33N 35°11' E 139°47'3 2.7
2016-Jul-18 01:33N 35°13' E 139°44'2 2.5
2016-Jul-18 00:33N 35°12' E 139°47'2 2.4
2016-Jul-17 23:32N 35°13' E 139°44'2 1.7
2016-Jul-17 22:33N 35°12' E 139°46'2 1.6
2016-Jul-17 21:33N 35°13' E 139°45'  
Track history (hours):
 
Tides and Currents Weather Stations Pressure Air Temp Water Temp Dewpoint Dewpoint Depression Visibility Wind Speed Wind Dir Waves Ship Positions

Shirahamamaru

Last reported at 2016-Jul-27 11:11 UTC. Time now 2016-Jul-27 11:39 UTC.
Position N 35°13' E 139°43'.

Length 79 m; draft 3.2 m.

Type: Passenger vessel. MMSI: 431000239.

Date/timePositionNaut miles runAvg speedWind from/ knotsBaromVisibWave heightAir tempDewpointWater temp
2016-Jul-27 11:11N 35°13' E 139°43'6 9.2
2016-Jul-27 10:33N 35°10' E 139°49'3 3.5
2016-Jul-27 09:33N 35°12' E 139°46'1 1.5
2016-Jul-27 08:33N 35°11' E 139°47'2 2.4
2016-Jul-27 07:33N 35°13' E 139°45'2 2.4
2016-Jul-27 06:33N 35°12' E 139°47'2 2.0
2016-Jul-27 05:33N 35°10' E 139°49'6 5.9
2016-Jul-27 04:33N 35°13' E 139°43'0 0.2
2016-Jul-27 03:33N 35°13' E 139°43'6 5.8
2016-Jul-27 02:33N 35°10' E 139°49'4 4.3
2016-Jul-27 01:33N 35°13' E 139°45'2 2.3
2016-Jul-27 00:33N 35°11' E 139°47'2 2.4
2016-Jul-26 23:32N 35°13' E 139°44'2 1.6
2016-Jul-26 22:33N 35°12' E 139°46'1 1.3
2016-Jul-26 21:32N 35°13' E 139°45'2 0.2
2016-Jul-26 11:10N 35°13' E 139°43'6 9.4
2016-Jul-26 10:33N 35°10' E 139°49'3 3.1
2016-Jul-26 09:33N 35°12' E 139°46'1 1.2
2016-Jul-26 08:33N 35°11' E 139°47'2 2.3
2016-Jul-26 07:33N 35°13' E 139°45'2 2.2
2016-Jul-26 06:33N 35°12' E 139°47'2 2.1
2016-Jul-26 05:33N 35°10' E 139°49'6 5.9
2016-Jul-26 04:33N 35°13' E 139°43'0 0.2
2016-Jul-26 03:33N 35°13' E 139°43'6 5.9
2016-Jul-26 02:33N 35°10' E 139°49'5 4.4
2016-Jul-26 01:31N 35°13' E 139°44'2 2.5
2016-Jul-26 00:33N 35°12' E 139°47'2 2.1
2016-Jul-25 23:33N 35°13' E 139°45'1 1.0
2016-Jul-25 22:34N 35°12' E 139°46'1 1.1
2016-Jul-25 21:33N 35°13' E 139°45'2 0.1
2016-Jul-25 11:07N 35°13' E 139°43'610.1
2016-Jul-25 10:33N 35°10' E 139°49'3 3.0
2016-Jul-25 09:33N 35°12' E 139°46'1 1.1
2016-Jul-25 08:34N 35°12' E 139°47'3 2.5
2016-Jul-25 07:33N 35°13' E 139°44'2 2.5
2016-Jul-25 06:34N 35°12' E 139°47'2 2.1
2016-Jul-25 05:33N 35°10' E 139°49'6 5.9
2016-Jul-25 04:33N 35°13' E 139°43'0 0.3
2016-Jul-25 03:33N 35°13' E 139°43'6 5.7
2016-Jul-25 02:33N 35°10' E 139°49'5 4.5
2016-Jul-25 01:33N 35°13' E 139°44'2 2.5
2016-Jul-25 00:33N 35°12' E 139°47'3 2.5
2016-Jul-24 23:32N 35°13' E 139°44'2 1.7
2016-Jul-24 22:33N 35°12' E 139°46'2 1.5
2016-Jul-24 21:32N 35°13' E 139°44'1 0.1
2016-Jul-24 11:08N 35°13' E 139°43'6 9.8
2016-Jul-24 10:33N 35°10' E 139°49'3 3.1
2016-Jul-24 09:33N 35°12' E 139°46'1 1.4
2016-Jul-24 08:33N 35°11' E 139°47'3 2.6
2016-Jul-24 07:33N 35°13' E 139°45'3 2.7
2016-Jul-24 06:33N 35°11' E 139°47'3 2.7
2016-Jul-24 05:33N 35°13' E 139°45'2 1.7
2016-Jul-24 04:33N 35°12' E 139°46'1 0.7
2016-Jul-24 03:33N 35°12' E 139°45'2 1.7
2016-Jul-24 02:33N 35°11' E 139°47'3 2.8
2016-Jul-24 01:32N 35°13' E 139°44'3 2.8
2016-Jul-24 00:33N 35°12' E 139°47'2 2.4
2016-Jul-23 23:33N 35°13' E 139°45'1 1.4
2016-Jul-23 22:33N 35°12' E 139°46'1 1.1
2016-Jul-23 21:33N 35°13' E 139°45'2 0.2
2016-Jul-23 11:10N 35°13' E 139°43'6 9.4
2016-Jul-23 10:33N 35°10' E 139°49'3 3.4
2016-Jul-23 09:33N 35°12' E 139°45'2 1.6
2016-Jul-23 08:33N 35°11' E 139°47'2 2.2
2016-Jul-23 07:33N 35°13' E 139°45'1 0.4
2016-Jul-23 04:34N 35°12' E 139°46'1 0.6
2016-Jul-23 03:33N 35°12' E 139°46'2 1.8
2016-Jul-23 02:34N 35°10' E 139°46'3 2.6
2016-Jul-23 01:33N 35°13' E 139°45'2 2.5
2016-Jul-23 00:34N 35°11' E 139°47'3 2.6
2016-Jul-22 23:33N 35°13' E 139°45'1 1.4
2016-Jul-22 22:33N 35°12' E 139°46'1 1.0
2016-Jul-22 21:33N 35°13' E 139°45'2 0.2
2016-Jul-22 11:08N 35°13' E 139°43'6 9.6
2016-Jul-22 10:33N 35°10' E 139°49'3 3.3
2016-Jul-22 09:34N 35°13' E 139°46'2 1.5
2016-Jul-22 08:33N 35°11' E 139°47'2 2.0
2016-Jul-22 07:33N 35°13' E 139°45'4 2.1
2016-Jul-22 05:33N 35°10' E 139°49'6 5.9
2016-Jul-22 04:33N 35°13' E 139°43'0 0.4
2016-Jul-22 03:33N 35°13' E 139°43'6 5.6
2016-Jul-22 02:33N 35°10' E 139°49'4 4.2
2016-Jul-22 01:33N 35°13' E 139°45'2 2.2
2016-Jul-22 00:33N 35°11' E 139°47'2 2.0
2016-Jul-21 23:33N 35°13' E 139°45'1 1.0
2016-Jul-21 22:33N 35°12' E 139°46'1 1.2
2016-Jul-21 21:33N 35°13' E 139°45'2 0.2
2016-Jul-21 11:07N 35°13' E 139°43'610.0
2016-Jul-21 10:33N 35°10' E 139°49'3 3.1
2016-Jul-21 09:33N 35°12' E 139°46'1 1.1
2016-Jul-21 08:33N 35°12' E 139°47'3 2.5
2016-Jul-21 07:32N 35°13' E 139°44'3 2.7
2016-Jul-21 06:33N 35°12' E 139°47'2 2.1
2016-Jul-21 05:34N 35°10' E 139°49'6 5.9
2016-Jul-21 04:34N 35°13' E 139°43'0 0.3
2016-Jul-21 03:33N 35°13' E 139°43'6 5.8
2016-Jul-21 02:33N 35°10' E 139°49'5 4.5
2016-Jul-21 01:34N 35°13' E 139°45'2 2.5
2016-Jul-21 00:33N 35°11' E 139°47'3 2.5
2016-Jul-20 23:33N 35°13' E 139°44'2 1.5
2016-Jul-20 22:33N 35°12' E 139°46'1 1.5
2016-Jul-20 21:32N 35°13' E 139°44'1 0.1
2016-Jul-20 11:09N 35°13' E 139°43'6 9.7
2016-Jul-20 10:33N 35°10' E 139°49'3 3.3
2016-Jul-20 09:34N 35°12' E 139°46'1 1.3
2016-Jul-20 08:33N 35°12' E 139°47'2 2.4
2016-Jul-20 07:32N 35°13' E 139°44'3 2.6
2016-Jul-20 06:34N 35°12' E 139°47'2 2.0
2016-Jul-20 05:33N 35°10' E 139°49'6 5.6
2016-Jul-20 04:31N 35°13' E 139°43'0 0.3
2016-Jul-20 03:32N 35°13' E 139°43'6 5.8
2016-Jul-20 02:33N 35°10' E 139°49'5 4.6
2016-Jul-20 01:33N 35°13' E 139°44'3 2.6
2016-Jul-20 00:33N 35°12' E 139°47'2 2.4
2016-Jul-19 23:33N 35°13' E 139°45'2 1.6
2016-Jul-19 22:33N 35°12' E 139°46'1 1.4
2016-Jul-19 21:33N 35°13' E 139°45'2 0.2
2016-Jul-19 11:12N 35°13' E 139°43'6 9.0
2016-Jul-19 10:34N 35°10' E 139°49'3 3.2
2016-Jul-19 09:33N 35°12' E 139°46'1 1.3
2016-Jul-19 08:33N 35°11' E 139°47'2 2.2
2016-Jul-19 07:34N 35°13' E 139°45'2 0.5
2016-Jul-19 04:33N 35°13' E 139°43'0 0.3
2016-Jul-19 03:33N 35°13' E 139°43'6 5.6
2016-Jul-19 02:33N 35°10' E 139°49'4 4.4
2016-Jul-19 01:33N 35°13' E 139°45'2 2.2
2016-Jul-19 00:34N 35°12' E 139°47'2 2.2
2016-Jul-18 23:33N 35°13' E 139°45'1 1.5
2016-Jul-18 22:34N 35°12' E 139°46'1 1.4
2016-Jul-18 21:34N 35°13' E 139°45'2 0.2
2016-Jul-18 11:08N 35°13' E 139°43'6 9.9
2016-Jul-18 10:33N 35°10' E 139°49'3 3.0
2016-Jul-18 09:33N 35°12' E 139°46'1 1.2
2016-Jul-18 08:33N 35°11' E 139°47'3 2.5
2016-Jul-18 07:33N 35°13' E 139°45'3 2.8
2016-Jul-18 06:33N 35°11' E 139°47'3 2.8
2016-Jul-18 05:32N 35°13' E 139°45'2 1.6
2016-Jul-18 04:33N 35°12' E 139°46'0 0.4
2016-Jul-18 03:34N 35°12' E 139°46'1 1.4
2016-Jul-18 02:33N 35°11' E 139°47'3 2.7
2016-Jul-18 01:33N 35°13' E 139°44'2 2.5
2016-Jul-18 00:33N 35°12' E 139°47'2 2.4
2016-Jul-17 23:32N 35°13' E 139°44'2 1.7
2016-Jul-17 22:33N 35°12' E 139°46'2 1.6
2016-Jul-17 21:33N 35°13' E 139°45'  

Dump ship's entire track history